createdAt,value
2024-05-09T00:00:43.367Z,106782.69
2024-05-09T00:03:11.931Z,106781.41
2024-05-09T00:05:45.859Z,106765.97
2024-05-09T00:08:13.281Z,106767.22
2024-05-09T00:10:41.300Z,106759.47
2024-05-09T00:13:10.872Z,106768.66
2024-05-09T00:15:38.917Z,106776.97
2024-05-09T00:18:07.964Z,106779.94
2024-05-09T00:20:39.719Z,106791.75
2024-05-09T00:23:12.110Z,106819.53
2024-05-09T00:25:40.669Z,106840.28
2024-05-09T00:28:07.841Z,106862.53
2024-05-09T00:30:36.835Z,106929.72
2024-05-09T00:33:09.445Z,107042.97
2024-05-09T00:35:38.536Z,107109.84
2024-05-09T00:38:06.122Z,107132.84
2024-05-09T00:40:39.852Z,107152.22
2024-05-09T00:43:10.507Z,107192.09
2024-05-09T00:45:37.979Z,107220.66
2024-05-09T00:48:08.009Z,107244.75
2024-05-09T00:50:38.615Z,107276.59
2024-05-09T00:53:07.084Z,107297.00
2024-05-09T00:55:35.897Z,107335.31
2024-05-09T00:58:03.751Z,107363.72
2024-05-09T01:00:37.962Z,107404.56
2024-05-09T01:03:09.046Z,107443.22
2024-05-09T01:05:39.712Z,107479.28
2024-05-09T01:08:08.722Z,107514.75
2024-05-09T01:10:42.781Z,107521.75
2024-05-09T01:13:12.584Z,107551.47
2024-05-09T01:15:39.892Z,107586.16
2024-05-09T01:18:12.240Z,108480.63
2024-05-09T01:20:43.512Z,108592.25
2024-05-09T01:23:14.808Z,108426.81
2024-05-09T01:25:44.579Z,108373.31
2024-05-09T01:28:12.085Z,108345.50
2024-05-09T01:30:39.302Z,108332.56
2024-05-09T01:33:09.222Z,108313.78
2024-05-09T01:35:39.436Z,108325.41
2024-05-09T01:38:07.580Z,108324.91
2024-05-09T01:40:38.657Z,108325.06
2024-05-09T01:43:08.532Z,108328.19
2024-05-09T01:45:36.782Z,108337.94
2024-05-09T01:48:04.749Z,108335.81
2024-05-09T01:50:38.490Z,108345.19
2024-05-09T01:53:14.459Z,108355.06
2024-05-09T01:55:42.683Z,108370.69
2024-05-09T01:58:10.217Z,108389.84
2024-05-09T02:00:41.096Z,108392.81
2024-05-09T02:03:14.981Z,108412.91
2024-05-09T02:05:45.613Z,108424.66
2024-05-09T02:08:21.249Z,108435.97
2024-05-09T02:10:50.039Z,108485.53
2024-05-09T02:13:18.125Z,108484.19
2024-05-09T02:15:45.538Z,108473.88
2024-05-09T02:18:13.416Z,108487.91
2024-05-09T02:20:42.393Z,108500.22
2024-05-09T02:23:10.820Z,108513.44
2024-05-09T02:25:38.091Z,108529.63
2024-05-09T02:28:05.649Z,108560.16
2024-05-09T02:30:39.657Z,108560.91
2024-05-09T02:33:11.837Z,108608.34
2024-05-09T02:35:41.286Z,108617.97
2024-05-09T02:38:09.872Z,108957.97
2024-05-09T02:40:39.186Z,109596.06
2024-05-09T02:43:09.528Z,109976.25
2024-05-09T02:45:38.764Z,109597.53
2024-05-09T02:48:06.968Z,109475.38
2024-05-09T02:50:38.758Z,109381.25
2024-05-09T02:53:08.676Z,109291.94
2024-05-09T02:55:36.737Z,109236.47
2024-05-09T02:58:03.997Z,109204.88
2024-05-09T03:00:38.282Z,109200.22
2024-05-09T03:03:10.148Z,109200.50
2024-05-09T03:05:40.084Z,109165.97
2024-05-09T03:08:07.783Z,109135.53
2024-05-09T03:10:37.438Z,109115.34
2024-05-09T03:13:12.753Z,109107.84
2024-05-09T03:15:41.494Z,109104.50
2024-05-09T03:18:09.190Z,109133.22
2024-05-09T03:20:38.409Z,109155.47
2024-05-09T03:23:08.930Z,109174.22
2024-05-09T03:25:38.343Z,109130.44
2024-05-09T03:28:06.041Z,109109.78
2024-05-09T03:30:40.508Z,109100.72
2024-05-09T03:33:19.402Z,109100.09
2024-05-09T03:35:49.180Z,109076.41
2024-05-09T03:38:17.121Z,109055.75
2024-05-09T03:40:49.590Z,109066.13
2024-05-09T03:43:17.676Z,109055.47
2024-05-09T03:45:45.443Z,109059.41
2024-05-09T03:48:13.318Z,109050.91
2024-05-09T03:50:40.963Z,109041.84
2024-05-09T03:53:11.198Z,109038.06
2024-05-09T03:55:39.335Z,109035.72
2024-05-09T03:58:08.363Z,109042.28
2024-05-09T04:00:39.138Z,109038.94
2024-05-09T04:03:10.282Z,109033.22
2024-05-09T04:05:41.097Z,109012.44
2024-05-09T04:08:10.077Z,108997.38
2024-05-09T04:10:37.841Z,108996.50
2024-05-09T04:13:05.374Z,108994.75
2024-05-09T04:15:32.913Z,108997.38
2024-05-09T04:18:01.008Z,108984.78
2024-05-09T04:20:37.002Z,108984.34
2024-05-09T04:23:08.509Z,108983.47
2024-05-09T04:25:37.239Z,108972.50
2024-05-09T04:28:05.000Z,108977.47
2024-05-09T04:30:38.051Z,109259.88
2024-05-09T04:33:10.575Z,109150.28
2024-05-09T04:35:40.026Z,109139.81
2024-05-09T04:38:07.221Z,109134.97
2024-05-09T04:40:36.741Z,109126.34
2024-05-09T04:43:15.413Z,109125.88
2024-05-09T04:45:43.350Z,109115.47
2024-05-09T04:48:11.088Z,109108.03
2024-05-09T04:50:39.684Z,109111.41
2024-05-09T04:53:10.077Z,109107.59
2024-05-09T04:55:38.763Z,109102.47
2024-05-09T04:58:08.928Z,109117.69
2024-05-09T05:00:38.988Z,109133.06
2024-05-09T05:03:10.629Z,109144.19
2024-05-09T05:05:41.274Z,109153.84
2024-05-09T05:08:13.105Z,109161.63
2024-05-09T05:10:41.124Z,109165.75
2024-05-09T05:13:21.841Z,109163.41
2024-05-09T05:15:52.324Z,109196.63
2024-05-09T05:18:19.745Z,109214.09
2024-05-09T05:20:47.099Z,109219.78
2024-05-09T05:23:16.170Z,109219.34
2024-05-09T05:25:44.106Z,109234.72
2024-05-09T05:28:11.491Z,109257.56
2024-05-09T05:30:39.301Z,109265.00
2024-05-09T05:33:07.618Z,109275.97
2024-05-09T05:35:35.136Z,109291.66
2024-05-09T05:38:03.222Z,109324.19
2024-05-09T05:40:37.080Z,109359.19
2024-05-09T05:43:06.826Z,109396.84
2024-05-09T05:45:33.909Z,109429.38
2024-05-09T05:48:04.518Z,109439.66
2024-05-09T05:50:36.204Z,109440.47
2024-05-09T05:53:07.702Z,109448.66
2024-05-09T05:55:40.347Z,109449.63
2024-05-09T05:58:11.309Z,109453.81
2024-05-09T06:00:40.596Z,109444.88
2024-05-09T06:03:09.961Z,109437.47
2024-05-09T06:05:40.618Z,109404.31
2024-05-09T06:08:08.830Z,109361.72
2024-05-09T06:10:39.473Z,109326.28
2024-05-09T06:13:11.535Z,109277.91
2024-05-09T06:15:40.228Z,109245.28
2024-05-09T06:18:08.872Z,109220.69
2024-05-09T06:20:38.185Z,109195.03
2024-05-09T06:23:07.068Z,109176.88
2024-05-09T06:25:35.421Z,109210.59
2024-05-09T06:28:03.312Z,109172.78
2024-05-09T06:30:38.633Z,109121.66
2024-05-09T06:33:11.055Z,109058.25
2024-05-09T06:35:40.428Z,109019.91
2024-05-09T06:38:11.179Z,108987.59
2024-05-09T06:40:41.897Z,108948.06
2024-05-09T06:43:14.583Z,108896.88
2024-05-09T06:45:42.620Z,108840.06
2024-05-09T06:48:10.368Z,108788.00
2024-05-09T06:50:39.410Z,108723.19
2024-05-09T06:53:08.151Z,108628.69
2024-05-09T06:55:36.873Z,108549.56
2024-05-09T06:58:06.083Z,108441.78
2024-05-09T07:00:39.069Z,108351.69
2024-05-09T07:03:09.278Z,108270.41
2024-05-09T07:05:37.184Z,108183.41
2024-05-09T07:08:05.148Z,108094.59
2024-05-09T07:10:34.976Z,107958.53
2024-05-09T07:13:03.597Z,107734.78
2024-05-09T07:15:31.170Z,107528.53
2024-05-09T07:17:58.397Z,107340.66
2024-05-09T07:20:33.802Z,107163.06
2024-05-09T07:23:05.517Z,107028.47
2024-05-09T07:25:32.820Z,106921.03
2024-05-09T07:27:59.935Z,106831.13
2024-05-09T07:30:33.105Z,106761.72
2024-05-09T07:33:02.917Z,106668.25
2024-05-09T07:35:31.198Z,106584.88
2024-05-09T07:37:58.840Z,106525.84
2024-05-09T07:40:33.187Z,106484.72
2024-05-09T07:43:04.662Z,106434.88
2024-05-09T07:45:48.192Z,106396.97
2024-05-09T07:50:00.714Z,106360.28
2024-05-09T07:53:49.249Z,106279.38
2024-05-09T07:56:22.392Z,106256.91
2024-05-09T07:58:52.861Z,106248.38
2024-05-09T08:01:21.036Z,106241.78
2024-05-09T08:03:49.804Z,106222.72
2024-05-09T08:06:17.814Z,106210.22
2024-05-09T08:08:49.175Z,106188.97
2024-05-09T08:11:16.748Z,106146.44
2024-05-09T08:13:43.893Z,106102.81
2024-05-09T08:16:11.157Z,106065.59
2024-05-09T08:18:39.113Z,106022.78
2024-05-09T08:21:06.630Z,106026.84
2024-05-09T08:23:33.910Z,106027.41
2024-05-09T08:26:01.713Z,105977.19
2024-05-09T08:28:28.937Z,105942.09
2024-05-09T08:30:57.304Z,105932.19
2024-05-09T08:33:24.725Z,105880.00
2024-05-09T08:35:54.081Z,105827.56
2024-05-09T08:38:21.262Z,105764.22
2024-05-09T08:40:49.351Z,105712.66
2024-05-09T08:43:16.899Z,105737.06
2024-05-09T08:45:45.336Z,105660.50
2024-05-09T08:48:15.612Z,105546.13
2024-05-09T08:50:44.986Z,105574.56
2024-05-09T08:53:14.968Z,105628.72
2024-05-09T08:55:43.939Z,105697.25
2024-05-09T08:58:20.056Z,105709.91
2024-05-09T09:00:48.688Z,105722.69
2024-05-09T09:03:20.062Z,105682.22
2024-05-09T09:06:07.088Z,105669.44
2024-05-09T09:08:34.358Z,105702.19
2024-05-09T09:11:01.490Z,105693.66
2024-05-09T09:13:28.933Z,105607.84
2024-05-09T09:15:59.194Z,105571.28
2024-05-09T09:18:27.551Z,105628.16
2024-05-09T09:20:55.423Z,105614.13
2024-05-09T09:23:22.904Z,105402.69
2024-05-09T09:25:50.366Z,105276.56
2024-05-09T09:28:18.019Z,105209.31
2024-05-09T09:30:46.599Z,105177.50
2024-05-09T09:33:13.975Z,105131.38
2024-05-09T09:35:42.559Z,104264.09
2024-05-09T09:38:10.897Z,104619.75
2024-05-09T09:40:46.757Z,104624.31
2024-05-09T09:43:21.662Z,104153.72
2024-05-09T09:45:52.838Z,104058.56
2024-05-09T09:48:22.401Z,104000.66
2024-05-09T09:50:52.110Z,104114.88
2024-05-09T09:53:23.545Z,104127.72
2024-05-09T09:55:52.395Z,104175.50
2024-05-09T09:58:19.724Z,104098.53
2024-05-09T10:00:47.388Z,104070.88
2024-05-09T10:03:14.710Z,104036.16
2024-05-09T10:05:45.094Z,104016.84
2024-05-09T10:08:15.214Z,104010.72
2024-05-09T10:13:13.847Z,104078.25
2024-05-09T10:15:50.442Z,104130.19
2024-05-09T10:18:23.060Z,104103.69
2024-05-09T10:20:52.219Z,104127.66
2024-05-09T10:23:30.724Z,104128.97
2024-05-09T10:26:01.705Z,104077.59
2024-05-09T10:28:30.308Z,104071.53
2024-05-09T10:31:14.766Z,104064.28
2024-05-09T10:33:42.195Z,104025.31
2024-05-09T10:36:29.813Z,104101.16
2024-05-09T10:38:56.912Z,104109.59
2024-05-09T10:41:24.293Z,104094.41
2024-05-09T10:43:52.076Z,104132.09
2024-05-09T10:46:20.056Z,104163.31
2024-05-09T10:48:49.674Z,104124.41
2024-05-09T10:51:18.015Z,103921.91
2024-05-09T10:53:46.802Z,103997.06
2024-05-09T10:56:15.246Z,103860.34
2024-05-09T10:58:42.781Z,103823.06
2024-05-09T11:01:10.679Z,103838.03
2024-05-09T11:03:38.583Z,103893.91
2024-05-09T11:06:06.894Z,103975.91
2024-05-09T11:08:34.426Z,104000.06
2024-05-09T11:11:03.286Z,104000.38
2024-05-09T11:13:32.582Z,103979.56
2024-05-09T11:16:01.287Z,104034.47
2024-05-09T11:18:33.494Z,104035.16
2024-05-09T11:21:03.816Z,104017.44
2024-05-09T11:23:31.627Z,103978.72
2024-05-09T11:25:59.424Z,103966.13
2024-05-09T11:28:28.890Z,103960.63
2024-05-09T11:31:06.568Z,103958.66
2024-05-09T11:33:40.089Z,103944.06
2024-05-09T11:36:08.955Z,103967.50
2024-05-09T11:38:36.208Z,103985.72
2024-05-09T11:41:04.097Z,103941.03
2024-05-09T11:43:31.520Z,103914.69
2024-05-09T11:45:59.019Z,103913.63
2024-05-09T11:48:26.936Z,103911.22
2024-05-09T11:50:57.354Z,103890.13
2024-05-09T11:53:24.494Z,103910.00
2024-05-09T11:55:51.658Z,103907.06
2024-05-09T11:58:19.356Z,103913.78
2024-05-09T12:00:47.293Z,103901.84
2024-05-09T12:03:14.984Z,103875.38
2024-05-09T12:05:42.423Z,103873.81
2024-05-09T12:08:10.087Z,104230.78
2024-05-09T12:10:37.722Z,104323.69
2024-05-09T12:13:06.710Z,104339.69
2024-05-09T12:15:38.705Z,104356.78
2024-05-09T12:18:08.067Z,104320.25
2024-05-09T12:20:38.756Z,104296.66
2024-05-09T12:23:09.275Z,104318.56
2024-05-09T12:25:38.480Z,104290.47
2024-05-09T12:28:06.650Z,104304.75
2024-05-09T12:30:38.338Z,104306.28
2024-05-09T12:33:09.662Z,104305.50
2024-05-09T12:35:37.300Z,104294.44
2024-05-09T12:38:04.750Z,104314.41
2024-05-09T12:40:36.736Z,104288.25
2024-05-09T12:43:10.268Z,104151.34
2024-05-09T12:45:39.172Z,103946.09
2024-05-09T12:48:12.724Z,104000.25
2024-05-09T12:50:40.981Z,103965.88
2024-05-09T12:53:08.699Z,103966.31
2024-05-09T12:55:44.239Z,103956.19
2024-05-09T12:58:22.211Z,103936.81
2024-05-09T13:00:51.781Z,103953.41
2024-05-09T13:03:19.268Z,103974.34
2024-05-09T13:05:46.893Z,103968.69
2024-05-09T13:08:14.341Z,103959.06
2024-05-09T13:10:41.684Z,103972.88
2024-05-09T13:13:12.754Z,103941.44
2024-05-09T13:15:40.462Z,103925.25
2024-05-09T13:18:07.805Z,103905.59
2024-05-09T13:20:36.838Z,103902.69
2024-05-09T13:23:06.238Z,103896.94
2024-05-09T13:25:35.154Z,104022.88
2024-05-09T13:28:03.765Z,104049.88
2024-05-09T13:30:39.142Z,104026.53
2024-05-09T13:33:11.032Z,104005.38
2024-05-09T13:35:39.812Z,103917.63
2024-05-09T13:38:07.783Z,103855.00
2024-05-09T13:40:36.417Z,103883.66
2024-05-09T13:43:07.099Z,103914.47
2024-05-09T13:45:35.224Z,103930.06
2024-05-09T13:48:04.264Z,103940.25
2024-05-09T13:50:35.489Z,103961.66
2024-05-09T13:53:08.193Z,103970.53
2024-05-09T13:55:39.904Z,103987.41
2024-05-09T13:58:08.337Z,104062.69
2024-05-09T14:00:44.400Z,104071.56
2024-05-09T14:03:16.610Z,103999.81
2024-05-09T14:05:45.558Z,103896.44
2024-05-09T14:08:15.819Z,103811.31
2024-05-09T14:10:47.302Z,103777.88
2024-05-09T14:13:15.788Z,103677.69
2024-05-09T14:15:43.705Z,103602.19
2024-05-09T14:18:13.518Z,103533.03
2024-05-09T14:20:42.332Z,103566.78
2024-05-09T14:23:10.243Z,103730.94
2024-05-09T14:25:42.129Z,103668.44
2024-05-09T14:28:11.039Z,103609.59
2024-05-09T14:30:39.242Z,103490.16
2024-05-09T14:33:08.301Z,103501.28
2024-05-09T14:35:37.801Z,103431.38
2024-05-09T14:38:06.970Z,103523.50
2024-05-09T14:40:41.026Z,103514.09
2024-05-09T14:43:12.490Z,103419.72
2024-05-09T14:45:40.431Z,103477.78
2024-05-09T14:48:08.403Z,103473.88
2024-05-09T14:50:38.834Z,103514.72
2024-05-09T14:53:08.135Z,103452.31
2024-05-09T14:55:37.564Z,103460.50
2024-05-09T14:58:09.462Z,103469.69
2024-05-09T15:00:48.113Z,103519.94
2024-05-09T15:03:19.706Z,103493.75
2024-05-09T15:05:48.501Z,103466.03
2024-05-09T15:08:17.800Z,103449.41
2024-05-09T15:10:45.750Z,103456.13
2024-05-09T15:13:15.553Z,103486.88
2024-05-09T15:15:44.165Z,103471.91
2024-05-09T15:18:11.866Z,103487.59
2024-05-09T15:20:40.831Z,103500.41
2024-05-09T15:23:08.180Z,103517.97
2024-05-09T15:25:36.263Z,103492.31
2024-05-09T15:28:04.992Z,103489.25
2024-05-09T15:30:34.014Z,103533.66
2024-05-09T15:33:06.819Z,103525.31
2024-05-09T15:35:35.964Z,103505.72
2024-05-09T15:38:04.223Z,103525.69
2024-05-09T15:40:38.929Z,103528.56
2024-05-09T15:43:09.922Z,103549.16
2024-05-09T15:45:38.964Z,103538.06
2024-05-09T15:48:07.712Z,103534.88
2024-05-09T15:50:39.325Z,103527.34
2024-05-09T15:53:10.137Z,103519.47
2024-05-09T15:55:38.660Z,103527.47
2024-05-09T15:58:07.097Z,103549.72
2024-05-09T16:00:40.274Z,103554.69
2024-05-09T16:03:11.134Z,103551.75
2024-05-09T16:05:39.546Z,103538.78
2024-05-09T16:08:07.948Z,103544.97
2024-05-09T16:10:35.794Z,103538.25
2024-05-09T16:13:04.059Z,103560.63
2024-05-09T16:15:32.032Z,103555.00
2024-05-09T16:18:00.094Z,103561.50
2024-05-09T16:20:35.204Z,103552.28
2024-05-09T16:23:08.601Z,103549.31
2024-05-09T16:25:36.244Z,103529.78
2024-05-09T16:28:08.337Z,103502.09
2024-05-09T16:30:38.870Z,103524.53
2024-05-09T16:33:06.973Z,103649.84
2024-05-09T16:35:35.265Z,103654.50
2024-05-09T16:38:09.316Z,103642.25
2024-05-09T16:40:40.152Z,103637.72
2024-05-09T16:43:10.364Z,103625.41
2024-05-09T16:45:45.420Z,103631.88
2024-05-09T16:48:14.375Z,103625.25
2024-05-09T16:50:42.348Z,103622.81
2024-05-09T16:53:09.615Z,103624.94
2024-05-09T16:55:36.992Z,103616.59
2024-05-09T16:58:05.166Z,103618.75
2024-05-09T17:00:40.237Z,103620.31
2024-05-09T17:03:12.930Z,103612.03
2024-05-09T17:05:41.754Z,103613.22
2024-05-09T17:08:09.407Z,103610.75
2024-05-09T17:10:37.056Z,103609.84
2024-05-09T17:13:06.320Z,103604.22
2024-05-09T17:15:35.478Z,103603.06
2024-05-09T17:18:04.045Z,103592.47
2024-05-09T17:20:34.742Z,103593.34
2024-05-09T17:23:06.048Z,103588.44
2024-05-09T17:25:34.247Z,103588.19
2024-05-09T17:28:08.348Z,103568.59
2024-05-09T17:30:38.416Z,103534.03
2024-05-09T17:33:08.950Z,103517.28
2024-05-09T17:35:37.157Z,103428.84
2024-05-09T17:38:05.917Z,103442.75
2024-05-09T17:40:36.119Z,103388.69
2024-05-09T17:43:06.582Z,103325.38
2024-05-09T17:45:37.863Z,103318.63
2024-05-09T17:48:06.004Z,103321.38
2024-05-09T17:50:36.155Z,103285.19
2024-05-09T17:53:08.800Z,103248.81
2024-05-09T17:55:36.824Z,103283.97
2024-05-09T17:58:05.184Z,103317.94
2024-05-09T18:00:39.113Z,103449.75
2024-05-09T18:03:12.435Z,103557.56
2024-05-09T18:05:41.112Z,103587.16
2024-05-09T18:08:08.923Z,103657.94
2024-05-09T18:10:39.018Z,103771.00
2024-05-09T18:13:12.199Z,103933.84
2024-05-09T18:15:40.262Z,104040.81
2024-05-09T18:18:09.180Z,104183.03
2024-05-09T18:20:42.947Z,104381.78
2024-05-09T18:23:15.345Z,104593.81
2024-05-09T18:25:43.910Z,104787.78
2024-05-09T18:28:11.320Z,104917.16
2024-05-09T18:30:39.387Z,104972.16
2024-05-09T18:33:08.223Z,105003.13
2024-05-09T18:35:36.781Z,105020.09
2024-05-09T18:38:05.799Z,105044.06
2024-05-09T18:40:36.495Z,105081.13
2024-05-09T18:43:07.936Z,105088.50
2024-05-09T18:45:39.878Z,105115.22
2024-05-09T18:48:09.108Z,105144.44
2024-05-09T18:50:39.578Z,105164.41
2024-05-09T18:53:11.022Z,105190.78
2024-05-09T18:55:39.344Z,105202.88
2024-05-09T18:58:06.894Z,105214.94
2024-05-09T19:00:37.569Z,105207.34
2024-05-09T19:03:12.675Z,105197.53
2024-05-09T19:05:43.677Z,105201.47
2024-05-09T19:08:12.444Z,105190.50
2024-05-09T19:10:40.200Z,105201.16
2024-05-09T19:13:13.082Z,105215.19
2024-05-09T19:15:42.572Z,105209.56
2024-05-09T19:18:12.572Z,105177.59
2024-05-09T19:20:40.340Z,105177.59
2024-05-09T19:23:07.868Z,105179.28
2024-05-09T19:25:36.109Z,105180.97
2024-05-09T19:28:05.148Z,105174.53
2024-05-09T19:30:39.375Z,105189.41
2024-05-09T19:33:11.255Z,105197.28
2024-05-09T19:35:39.896Z,105200.91
2024-05-09T19:38:07.107Z,105214.09
2024-05-09T19:40:35.401Z,105195.88
2024-05-09T19:43:04.242Z,105186.25
2024-05-09T19:45:33.786Z,105189.34
2024-05-09T19:48:02.011Z,105190.97
2024-05-09T19:50:39.965Z,105207.75
2024-05-09T19:53:11.652Z,105225.91
2024-05-09T19:55:39.315Z,105240.16
2024-05-09T19:58:07.670Z,105253.28
2024-05-09T20:00:39.423Z,105271.13
2024-05-09T20:03:09.490Z,105274.66
2024-05-09T20:05:37.769Z,105263.13
2024-05-09T20:08:06.091Z,105271.41
2024-05-09T20:10:35.525Z,105266.00
2024-05-09T20:13:06.648Z,105296.66
2024-05-09T20:15:35.753Z,105326.53
2024-05-09T20:18:04.045Z,105355.81
2024-05-09T20:20:38.101Z,105361.06
2024-05-09T20:23:09.777Z,105396.78
2024-05-09T20:25:37.516Z,105425.31
2024-05-09T20:28:06.393Z,105423.00
2024-05-09T20:30:35.169Z,105427.16
2024-05-09T20:33:05.201Z,105431.31
2024-05-09T20:35:34.416Z,105441.13
2024-05-09T20:38:03.140Z,105447.00
2024-05-09T20:40:35.516Z,105450.28
2024-05-09T20:43:06.839Z,105467.78
2024-05-09T20:45:35.107Z,105476.41
2024-05-09T20:48:02.761Z,105476.91
2024-05-09T20:50:38.259Z,105475.75
2024-05-09T20:53:09.961Z,105481.00
2024-05-09T20:55:37.234Z,105490.16
2024-05-09T20:58:04.873Z,105497.69
2024-05-09T21:00:39.543Z,105508.88
2024-05-09T21:03:10.881Z,105515.03
2024-05-09T21:05:38.794Z,105520.31
2024-05-09T21:08:06.630Z,105525.91
2024-05-09T21:10:35.329Z,105528.13
2024-05-09T21:13:03.606Z,105538.94
2024-05-09T21:15:31.802Z,105542.59
2024-05-09T21:17:59.505Z,105540.03
2024-05-09T21:22:57.969Z,105553.34
2024-05-09T21:25:25.354Z,105556.72
2024-05-09T21:27:53.079Z,105553.59
2024-05-09T21:30:31.521Z,105561.63
2024-05-09T21:33:09.284Z,105565.78
2024-05-09T21:35:37.793Z,105573.31
2024-05-09T21:38:05.117Z,105577.19
2024-05-09T21:40:35.677Z,105579.97
2024-05-09T21:43:05.038Z,105588.56
2024-05-09T21:45:32.612Z,105590.06
2024-05-09T21:48:00.246Z,105585.47
2024-05-09T21:50:35.397Z,105596.91
2024-05-09T21:53:07.034Z,105607.16
2024-05-09T21:55:34.875Z,105616.63
2024-05-09T21:58:02.414Z,105638.06
2024-05-09T22:00:36.039Z,105638.13
2024-05-09T22:03:06.729Z,105648.25
2024-05-09T22:05:34.898Z,105647.66
2024-05-09T22:08:02.136Z,105649.19
2024-05-09T22:10:34.195Z,105660.25
2024-05-09T22:13:05.109Z,105662.19
2024-05-09T22:15:36.418Z,105674.34
2024-05-09T22:18:05.373Z,105681.53
2024-05-09T22:20:37.753Z,105688.47
2024-05-09T22:23:07.644Z,105701.06
2024-05-09T22:25:35.684Z,105709.56
2024-05-09T22:28:03.339Z,105734.00
2024-05-09T22:30:37.026Z,105734.13
2024-05-09T22:33:11.681Z,105761.31
2024-05-09T22:35:40.992Z,105763.13
2024-05-09T22:38:08.508Z,105780.22
2024-05-09T22:40:46.601Z,105788.84
2024-05-09T22:43:24.387Z,105792.84
2024-05-09T22:45:55.962Z,105816.97
2024-05-09T22:48:24.799Z,105815.38
2024-05-09T22:50:53.118Z,105827.63
2024-05-09T22:53:22.186Z,105838.66
2024-05-09T22:55:49.896Z,105855.66
2024-05-09T22:58:17.576Z,105869.22
2024-05-09T23:00:44.885Z,105876.97
2024-05-09T23:03:12.294Z,105894.78
2024-05-09T23:05:39.515Z,105910.44
2024-05-09T23:08:07.396Z,105926.56
2024-05-09T23:10:37.846Z,105935.41
2024-05-09T23:13:08.891Z,105948.38
2024-05-09T23:15:37.618Z,105958.44
2024-05-09T23:18:05.410Z,105973.59
2024-05-09T23:20:37.712Z,105969.34
2024-05-09T23:23:08.339Z,105973.94
2024-05-09T23:25:37.055Z,105983.00
2024-05-09T23:28:04.920Z,105989.06
2024-05-09T23:30:37.873Z,106003.94
2024-05-09T23:33:10.739Z,106026.31
2024-05-09T23:35:41.969Z,106034.13
2024-05-09T23:38:09.361Z,106117.78
2024-05-09T23:40:39.808Z,106130.50
2024-05-09T23:43:12.559Z,106152.38
2024-05-09T23:45:40.761Z,106146.41
2024-05-09T23:48:08.509Z,106153.72
2024-05-09T23:50:38.209Z,106196.59
2024-05-09T23:53:08.579Z,106212.50
2024-05-09T23:55:37.314Z,106223.22
2024-05-09T23:58:04.929Z,106242.75
